sensor_id;sensor_type;location;lat;lon;timestamp;temperature;humidity
36548;DHT22;22551;52.206;4.856;2023-04-29T00:02:27;9.30;99.90
36548;DHT22;22551;52.206;4.856;2023-04-29T00:07:32;9.30;99.90
36548;DHT22;22551;52.206;4.856;2023-04-29T00:12:34;9.30;99.90
36548;DHT22;22551;52.206;4.856;2023-04-29T00:17:36;9.20;99.90
36548;DHT22;22551;52.206;4.856;2023-04-29T00:22:40;9.20;99.90
36548;DHT22;22551;52.206;4.856;2023-04-29T00:27:42;9.30;99.90
36548;DHT22;22551;52.206;4.856;2023-04-29T00:32:44;9.20;99.90
36548;DHT22;22551;52.206;4.856;2023-04-29T00:37:49;9.30;99.90
36548;DHT22;22551;52.206;4.856;2023-04-29T00:42:51;9.30;99.90
36548;DHT22;22551;52.206;4.856;2023-04-29T00:47:54;9.40;99.90
36548;DHT22;22551;52.206;4.856;2023-04-29T00:52:58;9.40;99.90
36548;DHT22;22551;52.206;4.856;2023-04-29T00:58:00;9.30;99.90
36548;DHT22;22551;52.206;4.856;2023-04-29T01:03:04;9.30;99.90
36548;DHT22;22551;52.206;4.856;2023-04-29T01:08:23;9.30;99.90
36548;DHT22;22551;52.206;4.856;2023-04-29T01:13:44;9.30;99.90
36548;DHT22;22551;52.206;4.856;2023-04-29T01:18:54;9.30;99.90
36548;DHT22;22551;52.206;4.856;2023-04-29T01:23:58;9.30;99.90
36548;DHT22;22551;52.206;4.856;2023-04-29T01:29:09;9.40;99.90
36548;DHT22;22551;52.206;4.856;2023-04-29T01:34:30;9.30;99.90
36548;DHT22;22551;52.206;4.856;2023-04-29T01:39:40;9.30;99.90
36548;DHT22;22551;52.206;4.856;2023-04-29T01:55:09;9.30;99.90
36548;DHT22;22551;52.206;4.856;2023-04-29T02:00:12;9.20;99.90
36548;DHT22;22551;52.206;4.856;2023-04-29T02:05:17;9.30;99.90
36548;DHT22;22551;52.206;4.856;2023-04-29T02:31:02;9.20;99.90
36548;DHT22;22551;52.206;4.856;2023-04-29T02:36:07;9.30;99.90
36548;DHT22;22551;52.206;4.856;2023-04-29T02:41:09;9.30;99.90
36548;DHT22;22551;52.206;4.856;2023-04-29T02:46:15;9.30;99.90
36548;DHT22;22551;52.206;4.856;2023-04-29T02:51:18;9.30;99.90
36548;DHT22;22551;52.206;4.856;2023-04-29T02:56:22;9.30;99.90
36548;DHT22;22551;52.206;4.856;2023-04-29T03:01:25;9.30;99.90
36548;DHT22;22551;52.206;4.856;2023-04-29T03:06:28;9.30;99.90
36548;DHT22;22551;52.206;4.856;2023-04-29T03:11:31;9.30;99.90
36548;DHT22;22551;52.206;4.856;2023-04-29T03:16:34;9.30;99.90
36548;DHT22;22551;52.206;4.856;2023-04-29T03:42:19;9.40;99.90
36548;DHT22;22551;52.206;4.856;2023-04-29T03:47:35;9.30;99.90
36548;DHT22;22551;52.206;4.856;2023-04-29T03:52:50;9.40;99.90
36548;DHT22;22551;52.206;4.856;2023-04-29T03:57:57;9.30;99.90
36548;DHT22;22551;52.206;4.856;2023-04-29T04:03:01;9.40;99.90
36548;DHT22;22551;52.206;4.856;2023-04-29T04:08:04;9.40;99.90
36548;DHT22;22551;52.206;4.856;2023-04-29T04:13:11;9.30;99.90
36548;DHT22;22551;52.206;4.856;2023-04-29T04:18:14;9.30;99.90
36548;DHT22;22551;52.206;4.856;2023-04-29T04:23:16;9.40;99.90
36548;DHT22;22551;52.206;4.856;2023-04-29T04:28:20;9.40;99.90
36548;DHT22;22551;52.206;4.856;2023-04-29T04:33:22;9.40;99.90
36548;DHT22;22551;52.206;4.856;2023-04-29T04:38:24;9.40;99.90
36548;DHT22;22551;52.206;4.856;2023-04-29T04:43:29;9.40;99.90
36548;DHT22;22551;52.206;4.856;2023-04-29T04:48:31;9.40;99.90
36548;DHT22;22551;52.206;4.856;2023-04-29T04:53:33;9.40;99.90
36548;DHT22;22551;52.206;4.856;2023-04-29T04:58:36;9.30;99.90
36548;DHT22;22551;52.206;4.856;2023-04-29T05:03:39;9.40;99.90
36548;DHT22;22551;52.206;4.856;2023-04-29T05:08:41;9.40;99.90
36548;DHT22;22551;52.206;4.856;2023-04-29T05:13:45;9.40;99.90
36548;DHT22;22551;52.206;4.856;2023-04-29T05:18:47;9.30;99.90
36548;DHT22;22551;52.206;4.856;2023-04-29T05:23:49;9.30;99.90
36548;DHT22;22551;52.206;4.856;2023-04-29T05:28:53;9.40;99.90
36548;DHT22;22551;52.206;4.856;2023-04-29T05:33:55;9.40;99.90
36548;DHT22;22551;52.206;4.856;2023-04-29T05:38:58;9.50;99.90
36548;DHT22;22551;52.206;4.856;2023-04-29T05:44:01;9.50;99.90
36548;DHT22;22551;52.206;4.856;2023-04-29T05:49:03;9.60;99.90
36548;DHT22;22551;52.206;4.856;2023-04-29T05:54:06;9.60;99.90
36548;DHT22;22551;52.206;4.856;2023-04-29T05:59:09;9.60;99.90
36548;DHT22;22551;52.206;4.856;2023-04-29T06:04:11;9.60;99.90
36548;DHT22;22551;52.206;4.856;2023-04-29T06:09:14;9.60;99.90
36548;DHT22;22551;52.206;4.856;2023-04-29T06:14:17;9.70;99.90
36548;DHT22;22551;52.206;4.856;2023-04-29T06:19:20;9.70;99.90
36548;DHT22;22551;52.206;4.856;2023-04-29T06:24:22;9.70;99.90
36548;DHT22;22551;52.206;4.856;2023-04-29T06:29:26;9.90;99.90
36548;DHT22;22551;52.206;4.856;2023-04-29T06:34:28;10.10;99.90
36548;DHT22;22551;52.206;4.856;2023-04-29T06:39:31;10.20;99.90
36548;DHT22;22551;52.206;4.856;2023-04-29T06:44:35;10.30;99.90
36548;DHT22;22551;52.206;4.856;2023-04-29T06:49:37;10.30;99.90
36548;DHT22;22551;52.206;4.856;2023-04-29T06:54:39;10.30;99.90
36548;DHT22;22551;52.206;4.856;2023-04-29T06:59:43;10.30;99.90
36548;DHT22;22551;52.206;4.856;2023-04-29T07:04:45;10.30;99.90
36548;DHT22;22551;52.206;4.856;2023-04-29T07:09:49;10.60;99.90
36548;DHT22;22551;52.206;4.856;2023-04-29T07:14:54;10.60;99.90
36548;DHT22;22551;52.206;4.856;2023-04-29T07:19:57;10.80;99.90
36548;DHT22;22551;52.206;4.856;2023-04-29T07:24:59;10.80;99.90
36548;DHT22;22551;52.206;4.856;2023-04-29T07:40:24;11.30;99.90
36548;DHT22;22551;52.206;4.856;2023-04-29T07:45:26;11.70;99.90
36548;DHT22;22551;52.206;4.856;2023-04-29T07:50:29;11.70;99.90
36548;DHT22;22551;52.206;4.856;2023-04-29T07:55:33;11.70;99.90
36548;DHT22;22551;52.206;4.856;2023-04-29T08:00:38;11.80;99.90
36548;DHT22;22551;52.206;4.856;2023-04-29T08:05:40;12.10;99.90
36548;DHT22;22551;52.206;4.856;2023-04-29T08:10:45;12.40;99.90
36548;DHT22;22551;52.206;4.856;2023-04-29T08:15:48;12.60;99.90
36548;DHT22;22551;52.206;4.856;2023-04-29T08:20:50;12.70;99.90
36548;DHT22;22551;52.206;4.856;2023-04-29T08:25:54;12.50;99.90
36548;DHT22;22551;52.206;4.856;2023-04-29T08:30:59;12.00;99.90
36548;DHT22;22551;52.206;4.856;2023-04-29T08:36:01;12.20;99.90
36548;DHT22;22551;52.206;4.856;2023-04-29T08:41:07;13.10;99.90
36548;DHT22;22551;52.206;4.856;2023-04-29T08:46:10;12.80;99.90
36548;DHT22;22551;52.206;4.856;2023-04-29T08:51:15;12.90;99.90
36548;DHT22;22551;52.206;4.856;2023-04-29T08:56:19;12.90;99.90
36548;DHT22;22551;52.206;4.856;2023-04-29T09:01:28;12.70;99.90
36548;DHT22;22551;52.206;4.856;2023-04-29T09:06:31;13.10;99.90
36548;DHT22;22551;52.206;4.856;2023-04-29T09:11:36;13.30;99.90
36548;DHT22;22551;52.206;4.856;2023-04-29T09:16:38;13.70;99.90
36548;DHT22;22551;52.206;4.856;2023-04-29T09:21:53;13.90;99.90
36548;DHT22;22551;52.206;4.856;2023-04-29T09:27:00;14.30;99.90
36548;DHT22;22551;52.206;4.856;2023-04-29T09:32:21;14.00;99.90
36548;DHT22;22551;52.206;4.856;2023-04-29T09:37:25;13.40;99.90
36548;DHT22;22551;52.206;4.856;2023-04-29T09:42:29;14.20;99.90
36548;DHT22;22551;52.206;4.856;2023-04-29T09:47:31;14.60;99.90
36548;DHT22;22551;52.206;4.856;2023-04-29T09:52:39;14.40;99.90
36548;DHT22;22551;52.206;4.856;2023-04-29T09:57:46;15.50;99.90
36548;DHT22;22551;52.206;4.856;2023-04-29T10:02:49;14.20;99.90
36548;DHT22;22551;52.206;4.856;2023-04-29T10:07:52;13.70;99.90
36548;DHT22;22551;52.206;4.856;2023-04-29T10:12:59;14.80;99.90
36548;DHT22;22551;52.206;4.856;2023-04-29T10:18:11;14.60;99.90
36548;DHT22;22551;52.206;4.856;2023-04-29T10:23:18;14.90;99.90
36548;DHT22;22551;52.206;4.856;2023-04-29T10:28:26;15.30;99.90
36548;DHT22;22551;52.206;4.856;2023-04-29T10:33:34;15.80;99.90
36548;DHT22;22551;52.206;4.856;2023-04-29T10:38:40;15.90;99.90
36548;DHT22;22551;52.206;4.856;2023-04-29T10:43:47;16.10;99.90
36548;DHT22;22551;52.206;4.856;2023-04-29T10:48:57;16.90;99.90
36548;DHT22;22551;52.206;4.856;2023-04-29T10:54:07;17.10;99.90
36548;DHT22;22551;52.206;4.856;2023-04-29T10:59:16;16.30;99.90
36548;DHT22;22551;52.206;4.856;2023-04-29T11:04:22;16.30;99.90
36548;DHT22;22551;52.206;4.856;2023-04-29T11:09:26;16.20;99.90
36548;DHT22;22551;52.206;4.856;2023-04-29T11:14:34;17.00;99.90
36548;DHT22;22551;52.206;4.856;2023-04-29T11:19:40;16.30;99.90
36548;DHT22;22551;52.206;4.856;2023-04-29T11:24:49;15.80;99.90
36548;DHT22;22551;52.206;4.856;2023-04-29T11:29:55;16.60;99.90
36548;DHT22;22551;52.206;4.856;2023-04-29T11:35:09;16.40;99.90
36548;DHT22;22551;52.206;4.856;2023-04-29T11:40:12;16.70;99.90
36548;DHT22;22551;52.206;4.856;2023-04-29T11:45:19;16.90;99.90
36548;DHT22;22551;52.206;4.856;2023-04-29T11:50:22;17.10;99.90
36548;DHT22;22551;52.206;4.856;2023-04-29T11:55:27;17.00;99.90
36548;DHT22;22551;52.206;4.856;2023-04-29T12:00:32;17.30;99.90
36548;DHT22;22551;52.206;4.856;2023-04-29T12:05:35;17.00;99.90
36548;DHT22;22551;52.206;4.856;2023-04-29T12:10:47;17.10;99.90
36548;DHT22;22551;52.206;4.856;2023-04-29T12:15:55;16.80;99.90
36548;DHT22;22551;52.206;4.856;2023-04-29T12:21:01;17.00;99.90
36548;DHT22;22551;52.206;4.856;2023-04-29T12:26:07;16.70;99.90
36548;DHT22;22551;52.206;4.856;2023-04-29T12:31:16;17.10;99.90
36548;DHT22;22551;52.206;4.856;2023-04-29T12:47:31;17.60;99.90
36548;DHT22;22551;52.206;4.856;2023-04-29T12:52:38;17.10;99.90
36548;DHT22;22551;52.206;4.856;2023-04-29T12:57:54;17.10;99.90
36548;DHT22;22551;52.206;4.856;2023-04-29T13:03:22;17.20;99.90
36548;DHT22;22551;52.206;4.856;2023-04-29T13:08:24;17.80;99.90
36548;DHT22;22551;52.206;4.856;2023-04-29T13:13:27;18.10;99.90
36548;DHT22;22551;52.206;4.856;2023-04-29T13:18:31;17.60;99.90
36548;DHT22;22551;52.206;4.856;2023-04-29T13:23:42;17.00;99.90
36548;DHT22;22551;52.206;4.856;2023-04-29T13:28:53;17.20;99.90
36548;DHT22;22551;52.206;4.856;2023-04-29T13:34:00;17.20;99.90
36548;DHT22;22551;52.206;4.856;2023-04-29T13:39:02;17.30;99.90
36548;DHT22;22551;52.206;4.856;2023-04-29T13:44:09;17.70;99.90
36548;DHT22;22551;52.206;4.856;2023-04-29T13:49:18;18.00;99.90
36548;DHT22;22551;52.206;4.856;2023-04-29T13:54:20;17.10;99.90
36548;DHT22;22551;52.206;4.856;2023-04-29T13:59:22;17.50;99.90
36548;DHT22;22551;52.206;4.856;2023-04-29T14:04:27;17.50;99.90
36548;DHT22;22551;52.206;4.856;2023-04-29T14:09:29;17.00;99.90
36548;DHT22;22551;52.206;4.856;2023-04-29T14:14:34;17.00;99.90
36548;DHT22;22551;52.206;4.856;2023-04-29T14:19:41;17.40;99.90
36548;DHT22;22551;52.206;4.856;2023-04-29T14:24:48;17.70;99.90
36548;DHT22;22551;52.206;4.856;2023-04-29T14:29:50;17.00;99.90
36548;DHT22;22551;52.206;4.856;2023-04-29T14:34:54;16.60;99.90
36548;DHT22;22551;52.206;4.856;2023-04-29T14:40:00;17.00;99.90
36548;DHT22;22551;52.206;4.856;2023-04-29T14:45:08;16.80;99.90
36548;DHT22;22551;52.206;4.856;2023-04-29T14:50:13;16.90;99.90
36548;DHT22;22551;52.206;4.856;2023-04-29T14:55:15;16.90;99.90
36548;DHT22;22551;52.206;4.856;2023-04-29T15:00:18;16.90;99.90
36548;DHT22;22551;52.206;4.856;2023-04-29T15:05:22;17.00;99.90
36548;DHT22;22551;52.206;4.856;2023-04-29T15:10:25;16.50;99.90
36548;DHT22;22551;52.206;4.856;2023-04-29T15:15:27;16.50;99.90
36548;DHT22;22551;52.206;4.856;2023-04-29T15:20:30;16.70;99.90
36548;DHT22;22551;52.206;4.856;2023-04-29T15:25:35;16.80;99.90
36548;DHT22;22551;52.206;4.856;2023-04-29T15:30:38;16.70;99.90
36548;DHT22;22551;52.206;4.856;2023-04-29T15:35:41;17.00;99.90
36548;DHT22;22551;52.206;4.856;2023-04-29T15:40:44;16.70;99.90
36548;DHT22;22551;52.206;4.856;2023-04-29T15:45:47;16.70;99.90
36548;DHT22;22551;52.206;4.856;2023-04-29T15:50:50;17.00;99.90
36548;DHT22;22551;52.206;4.856;2023-04-29T15:55:55;16.70;99.90
36548;DHT22;22551;52.206;4.856;2023-04-29T16:01:01;17.00;99.90
36548;DHT22;22551;52.206;4.856;2023-04-29T16:06:05;16.70;99.90
36548;DHT22;22551;52.206;4.856;2023-04-29T16:11:08;16.60;99.90
36548;DHT22;22551;52.206;4.856;2023-04-29T16:16:10;16.40;99.90
36548;DHT22;22551;52.206;4.856;2023-04-29T16:21:14;16.40;99.90
36548;DHT22;22551;52.206;4.856;2023-04-29T16:26:16;16.10;99.90
36548;DHT22;22551;52.206;4.856;2023-04-29T16:31:19;16.30;99.90
36548;DHT22;22551;52.206;4.856;2023-04-29T16:36:22;16.10;99.90
36548;DHT22;22551;52.206;4.856;2023-04-29T16:41:25;16.30;99.90
36548;DHT22;22551;52.206;4.856;2023-04-29T16:46:28;15.80;99.90
36548;DHT22;22551;52.206;4.856;2023-04-29T16:51:33;15.80;99.90
36548;DHT22;22551;52.206;4.856;2023-04-29T16:56:35;15.50;99.90
36548;DHT22;22551;52.206;4.856;2023-04-29T17:01:38;15.30;99.90
36548;DHT22;22551;52.206;4.856;2023-04-29T17:06:42;15.00;99.90
36548;DHT22;22551;52.206;4.856;2023-04-29T17:11:44;15.00;99.90
36548;DHT22;22551;52.206;4.856;2023-04-29T17:16:46;14.40;99.90
36548;DHT22;22551;52.206;4.856;2023-04-29T17:21:50;14.40;99.90
36548;DHT22;22551;52.206;4.856;2023-04-29T17:26:53;14.20;99.90
36548;DHT22;22551;52.206;4.856;2023-04-29T17:31:57;13.80;99.90
36548;DHT22;22551;52.206;4.856;2023-04-29T17:37:03;13.70;99.90
36548;DHT22;22551;52.206;4.856;2023-04-29T17:42:05;13.40;99.90
36548;DHT22;22551;52.206;4.856;2023-04-29T17:47:08;13.20;99.90
36548;DHT22;22551;52.206;4.856;2023-04-29T17:52:12;13.30;99.90
36548;DHT22;22551;52.206;4.856;2023-04-29T17:57:15;13.00;99.90
36548;DHT22;22551;52.206;4.856;2023-04-29T18:02:17;13.00;99.90
36548;DHT22;22551;52.206;4.856;2023-04-29T18:07:21;12.90;99.90
36548;DHT22;22551;52.206;4.856;2023-04-29T18:12:23;12.70;99.90
36548;DHT22;22551;52.206;4.856;2023-04-29T18:17:26;12.60;99.90
36548;DHT22;22551;52.206;4.856;2023-04-29T18:22:29;12.40;99.90
36548;DHT22;22551;52.206;4.856;2023-04-29T18:27:31;12.20;99.90
36548;DHT22;22551;52.206;4.856;2023-04-29T18:32:34;12.20;99.90
36548;DHT22;22551;52.206;4.856;2023-04-29T18:37:38;12.10;99.90
36548;DHT22;22551;52.206;4.856;2023-04-29T18:42:44;12.00;99.90
36548;DHT22;22551;52.206;4.856;2023-04-29T18:47:52;11.90;99.90
36548;DHT22;22551;52.206;4.856;2023-04-29T18:53:00;11.80;99.90
36548;DHT22;22551;52.206;4.856;2023-04-29T18:58:07;11.70;99.90
36548;DHT22;22551;52.206;4.856;2023-04-29T19:03:15;11.60;99.90
36548;DHT22;22551;52.206;4.856;2023-04-29T19:08:24;11.50;99.90
36548;DHT22;22551;52.206;4.856;2023-04-29T19:13:26;11.50;99.90
36548;DHT22;22551;52.206;4.856;2023-04-29T19:18:35;11.20;99.90
36548;DHT22;22551;52.206;4.856;2023-04-29T19:23:42;11.10;99.90
36548;DHT22;22551;52.206;4.856;2023-04-29T19:28:49;11.00;99.90
36548;DHT22;22551;52.206;4.856;2023-04-29T19:34:01;10.90;99.90
36548;DHT22;22551;52.206;4.856;2023-04-29T19:39:08;10.80;99.90
36548;DHT22;22551;52.206;4.856;2023-04-29T19:44:11;10.80;99.90
36548;DHT22;22551;52.206;4.856;2023-04-29T19:49:13;10.70;99.90
36548;DHT22;22551;52.206;4.856;2023-04-29T19:59:28;10.50;99.90
36548;DHT22;22551;52.206;4.856;2023-04-29T20:05:37;10.40;99.90
36548;DHT22;22551;52.206;4.856;2023-04-29T20:10:54;10.30;99.90
36548;DHT22;22551;52.206;4.856;2023-04-29T20:16:03;10.30;99.90
36548;DHT22;22551;52.206;4.856;2023-04-29T20:21:43;10.20;99.90
36548;DHT22;22551;52.206;4.856;2023-04-29T20:26:46;10.20;99.90
36548;DHT22;22551;52.206;4.856;2023-04-29T20:32:29;10.00;99.90
36548;DHT22;22551;52.206;4.856;2023-04-29T20:37:36;9.90;99.90
36548;DHT22;22551;52.206;4.856;2023-04-29T20:42:58;9.80;99.90
36548;DHT22;22551;52.206;4.856;2023-04-29T20:48:14;9.80;99.90
36548;DHT22;22551;52.206;4.856;2023-04-29T20:53:29;9.80;99.90
36548;DHT22;22551;52.206;4.856;2023-04-29T20:58:32;9.80;99.90
36548;DHT22;22551;52.206;4.856;2023-04-29T21:04:38;9.70;99.90
36548;DHT22;22551;52.206;4.856;2023-04-29T21:10:13;9.60;99.90
36548;DHT22;22551;52.206;4.856;2023-04-29T21:15:38;9.60;99.90
36548;DHT22;22551;52.206;4.856;2023-04-29T21:21:02;9.50;99.90
36548;DHT22;22551;52.206;4.856;2023-04-29T21:32:35;9.40;99.90
36548;DHT22;22551;52.206;4.856;2023-04-29T21:38:12;9.30;99.90
36548;DHT22;22551;52.206;4.856;2023-04-29T21:49:37;9.10;99.90
36548;DHT22;22551;52.206;4.856;2023-04-29T21:54:57;9.00;99.90
36548;DHT22;22551;52.206;4.856;2023-04-29T22:00:33;8.80;99.90
36548;DHT22;22551;52.206;4.856;2023-04-29T22:06:47;8.80;99.90
36548;DHT22;22551;52.206;4.856;2023-04-29T22:11:39;8.80;99.90
36548;DHT22;22551;52.206;4.856;2023-04-29T22:16:58;8.80;99.90
36548;DHT22;22551;52.206;4.856;2023-04-29T22:23:02;8.70;99.90
36548;DHT22;22551;52.206;4.856;2023-04-29T22:28:13;8.60;99.90
36548;DHT22;22551;52.206;4.856;2023-04-29T22:33:24;8.70;99.90
36548;DHT22;22551;52.206;4.856;2023-04-29T22:38:40;8.60;99.90
36548;DHT22;22551;52.206;4.856;2023-04-29T22:44:03;8.60;99.90
36548;DHT22;22551;52.206;4.856;2023-04-29T22:49:22;8.60;99.90
36548;DHT22;22551;52.206;4.856;2023-04-29T23:01:10;8.50;99.90
36548;DHT22;22551;52.206;4.856;2023-04-29T23:06:26;8.50;99.90
36548;DHT22;22551;52.206;4.856;2023-04-29T23:11:39;8.50;99.90
36548;DHT22;22551;52.206;4.856;2023-04-29T23:16:42;8.50;99.90
36548;DHT22;22551;52.206;4.856;2023-04-29T23:22:05;8.40;99.90
36548;DHT22;22551;52.206;4.856;2023-04-29T23:27:16;8.40;99.90
36548;DHT22;22551;52.206;4.856;2023-04-29T23:32:44;8.30;99.90
